Time;durP1;ratioP1;P1;durP2;ratioP2;P2;SDS_P1;SDS_P2;PMS_P1;PMS_P2;Temp;Humidity;BMP_temperature;BMP_pressure;BME280_temperature;BME280_humidity;BME280_pressure;Samples;Min_cycle;Max_cycle;Signal;HPM_P1;HPM_P2
2023/10/13 00:01:16;;;;;;;;;;;14.10;99.90;;;;;;7318525;19;9405;-70
2023/10/13 00:03:45;;;;;;;;;;;14.10;99.90;;;;;;7318132;19;9469;-70
2023/10/13 00:06:15;;;;;;;;;;;14.20;99.90;;;;;;7309610;19;9470;-70
2023/10/13 00:08:47;;;;;;;;;;;14.20;99.90;;;;;;7318068;19;10322;-70
2023/10/13 00:11:18;;;;;;;;;;;14.20;99.90;;;;;;7317547;19;10027;-70
2023/10/13 00:13:53;;;;;;;;;;;14.20;99.90;;;;;;7321203;19;9572;-70
2023/10/13 00:16:24;;;;;;;;;;;14.30;99.90;;;;;;7318396;19;9511;-71
2023/10/13 00:18:57;;;;;;;;;;;14.30;99.90;;;;;;7318634;19;9567;-70
2023/10/13 00:21:35;;;;;;;;;;;14.40;99.90;;;;;;7317312;19;9287;-70
2023/10/13 00:24:12;;;;;;;;;;;14.40;99.90;;;;;;7319283;19;10687;-70
2023/10/13 00:26:43;;;;;;;;;;;14.40;99.90;;;;;;7319233;19;9201;-70
2023/10/13 00:29:16;;;;;;;;;;;14.50;99.90;;;;;;7320348;19;9460;-70
2023/10/13 00:31:48;;;;;;;;;;;14.60;99.90;;;;;;7314397;19;9265;-70
2023/10/13 00:34:19;;;;;;;;;;;14.60;99.90;;;;;;7319596;19;9406;-70
2023/10/13 00:37:12;;;;;;;;;;;14.60;99.90;;;;;;7319512;19;9291;-70
2023/10/13 00:39:44;;;;;;;;;;;14.60;99.90;;;;;;7317948;19;9487;-70
2023/10/13 00:42:18;;;;;;;;;;;14.70;99.90;;;;;;7319379;19;9311;-70
2023/10/13 00:44:48;;;;;;;;;;;14.70;99.90;;;;;;7319863;19;9286;-70
2023/10/13 00:47:37;;;;;;;;;;;14.70;99.90;;;;;;7317740;19;9257;-70
2023/10/13 00:50:05;;;;;;;;;;;14.80;99.90;;;;;;7320442;19;9247;-70
2023/10/13 00:52:41;;;;;;;;;;;14.80;99.90;;;;;;7319460;19;9225;-70
2023/10/13 00:55:12;;;;;;;;;;;14.80;99.90;;;;;;7316964;19;9525;-70
2023/10/13 00:57:41;;;;;;;;;;;14.80;99.90;;;;;;7318601;19;9273;-70
2023/10/13 01:00:18;;;;;;;;;;;14.90;99.90;;;;;;7318183;19;9418;-70
2023/10/13 01:02:55;;;;;;;;;;;14.90;99.90;;;;;;7319018;19;9602;-70
2023/10/13 01:05:23;;;;;;;;;;;14.90;99.90;;;;;;7316199;19;9497;-71
2023/10/13 01:07:54;;;;;;;;;;;15.00;99.90;;;;;;7318379;19;10293;-70
2023/10/13 01:10:27;;;;;;;;;;;15.00;99.90;;;;;;7317887;19;9390;-70
2023/10/13 01:12:56;;;;;;;;;;;15.00;99.90;;;;;;7313995;19;9342;-70
2023/10/13 01:15:29;;;;;;;;;;;15.00;99.90;;;;;;7317094;19;9277;-70
2023/10/13 01:18:12;;;;;;;;;;;15.00;99.90;;;;;;7316387;19;9577;-70
2023/10/13 01:20:45;;;;;;;;;;;15.10;99.90;;;;;;7316117;19;9323;-70
2023/10/13 01:23:18;;;;;;;;;;;15.10;99.90;;;;;;7319313;19;9392;-70
2023/10/13 01:25:45;;;;;;;;;;;15.10;99.90;;;;;;7317021;19;9465;-69
2023/10/13 01:28:15;;;;;;;;;;;15.20;99.90;;;;;;7314904;19;9568;-70
2023/10/13 01:30:42;;;;;;;;;;;15.20;99.90;;;;;;7309984;19;9242;-70
2023/10/13 01:33:11;;;;;;;;;;;15.20;99.90;;;;;;7316521;19;9166;-70
2023/10/13 01:35:42;;;;;;;;;;;15.30;99.90;;;;;;7316493;19;9298;-70
2023/10/13 01:38:11;;;;;;;;;;;15.30;99.90;;;;;;7317628;19;9270;-70
2023/10/13 01:40:42;;;;;;;;;;;15.30;99.90;;;;;;7316655;19;9286;-70
2023/10/13 01:43:12;;;;;;;;;;;15.40;99.90;;;;;;7319584;19;9325;-70
2023/10/13 01:45:46;;;;;;;;;;;15.40;99.90;;;;;;7316092;19;9236;-70
2023/10/13 01:48:18;;;;;;;;;;;15.50;99.90;;;;;;7316636;19;15151;-70
2023/10/13 01:50:55;;;;;;;;;;;15.50;99.90;;;;;;7316499;19;11671;-70
2023/10/13 01:53:22;;;;;;;;;;;15.70;99.90;;;;;;7317377;19;9260;-70
2023/10/13 01:55:56;;;;;;;;;;;15.70;99.90;;;;;;7317837;19;9391;-70
2023/10/13 01:58:26;;;;;;;;;;;15.80;99.90;;;;;;7315245;19;9407;-70
2023/10/13 02:00:56;;;;;;;;;;;15.80;99.90;;;;;;7315116;19;9248;-70
2023/10/13 02:03:27;;;;;;;;;;;15.90;99.90;;;;;;7315778;19;10033;-71
2023/10/13 02:05:57;;;;;;;;;;;16.00;99.90;;;;;;7316683;19;9328;-71
2023/10/13 02:08:26;;;;;;;;;;;16.00;99.90;;;;;;7317148;19;9277;-70
2023/10/13 02:10:57;;;;;;;;;;;16.10;99.90;;;;;;7315359;19;9387;-70
2023/10/13 02:13:28;;;;;;;;;;;16.10;99.90;;;;;;7316252;19;9257;-70
2023/10/13 02:16:01;;;;;;;;;;;16.10;99.90;;;;;;7315757;19;9359;-70
2023/10/13 02:18:34;;;;;;;;;;;16.20;99.90;;;;;;7311876;19;11938;-70
2023/10/13 02:21:04;;;;;;;;;;;16.20;99.90;;;;;;7319753;19;9221;-71
2023/10/13 02:23:35;;;;;;;;;;;16.20;99.90;;;;;;7319044;19;9222;-70
2023/10/13 02:26:11;;;;;;;;;;;16.30;99.90;;;;;;7314995;19;9202;-70
2023/10/13 02:28:40;;;;;;;;;;;16.30;99.90;;;;;;7317957;19;9291;-70
2023/10/13 02:31:07;;;;;;;;;;;16.30;99.90;;;;;;7315980;19;9251;-70
2023/10/13 02:33:44;;;;;;;;;;;16.30;99.90;;;;;;7315297;19;9700;-70
2023/10/13 02:36:12;;;;;;;;;;;16.20;99.90;;;;;;7316581;19;10704;-70
2023/10/13 02:38:46;;;;;;;;;;;16.20;99.90;;;;;;7317610;19;9562;-70
2023/10/13 02:41:25;;;;;;;;;;;16.20;99.90;;;;;;7317387;19;9604;-70
2023/10/13 02:43:55;;;;;;;;;;;16.20;99.90;;;;;;7315796;19;9360;-70
2023/10/13 02:46:22;;;;;;;;;;;16.20;99.90;;;;;;7314832;19;9392;-71
2023/10/13 02:48:57;;;;;;;;;;;16.20;99.90;;;;;;7312012;19;9326;-70
2023/10/13 02:51:31;;;;;;;;;;;16.20;99.90;;;;;;7314812;19;9254;-69
2023/10/13 02:54:02;;;;;;;;;;;16.20;99.90;;;;;;7311679;19;9600;-70
2023/10/13 02:56:31;;;;;;;;;;;16.20;99.90;;;;;;7315088;19;9237;-70
2023/10/13 02:59:04;;;;;;;;;;;16.20;99.90;;;;;;7315213;19;9539;-71
2023/10/13 03:01:33;;;;;;;;;;;16.30;99.90;;;;;;7309218;19;9276;-70
2023/10/13 03:04:04;;;;;;;;;;;16.30;99.90;;;;;;7311323;19;11708;-70
2023/10/13 03:06:32;;;;;;;;;;;16.40;99.90;;;;;;7316038;19;10446;-70
2023/10/13 03:09:14;;;;;;;;;;;16.40;99.90;;;;;;7313922;19;9127;-70
2023/10/13 03:11:48;;;;;;;;;;;16.40;99.90;;;;;;7316194;19;9478;-70
2023/10/13 03:14:23;;;;;;;;;;;16.40;99.90;;;;;;7312175;19;9305;-70
2023/10/13 03:16:52;;;;;;;;;;;16.40;99.90;;;;;;7312167;19;9509;-70
2023/10/13 03:19:21;;;;;;;;;;;16.40;99.90;;;;;;7311964;19;9203;-70
2023/10/13 03:21:54;;;;;;;;;;;16.40;99.90;;;;;;7316375;19;9463;-70
2023/10/13 03:24:33;;;;;;;;;;;16.40;99.90;;;;;;7315677;19;9324;-70
2023/10/13 03:27:08;;;;;;;;;;;16.50;99.90;;;;;;7313340;19;9272;-70
2023/10/13 03:29:42;;;;;;;;;;;16.40;99.90;;;;;;7311688;19;8976;-70
2023/10/13 03:32:15;;;;;;;;;;;16.50;99.90;;;;;;7310630;19;9488;-70
2023/10/13 03:34:50;;;;;;;;;;;16.50;99.90;;;;;;7312007;19;9373;-70
2023/10/13 03:37:37;;;;;;;;;;;16.50;99.90;;;;;;7321729;19;9245;-70
2023/10/13 03:40:33;;;;;;;;;;;16.50;99.90;;;;;;7318106;19;9290;-70
2023/10/13 03:43:04;;;;;;;;;;;16.50;99.90;;;;;;7319904;19;9339;-70
2023/10/13 03:45:36;;;;;;;;;;;16.60;99.90;;;;;;7320887;19;9272;-70
2023/10/13 03:48:09;;;;;;;;;;;16.60;99.90;;;;;;7320259;19;9261;-70
2023/10/13 03:50:46;;;;;;;;;;;16.60;99.90;;;;;;7318812;19;9544;-70
2023/10/13 03:53:15;;;;;;;;;;;16.60;99.90;;;;;;7318609;19;9035;-70
2023/10/13 03:55:47;;;;;;;;;;;16.60;99.90;;;;;;7320015;19;9460;-70
2023/10/13 03:58:22;;;;;;;;;;;16.60;99.90;;;;;;7317960;19;9428;-70
2023/10/13 04:00:51;;;;;;;;;;;16.60;99.90;;;;;;7317063;19;9312;-70
2023/10/13 04:03:31;;;;;;;;;;;16.60;99.90;;;;;;7317053;19;9120;-70
2023/10/13 04:06:06;;;;;;;;;;;16.60;99.90;;;;;;7320003;19;9478;-70
2023/10/13 04:16:50;;;;;;;;;;;16.60;99.90;;;;;;7321665;19;9217;-70
2023/10/13 04:19:28;;;;;;;;;;;16.60;99.90;;;;;;7319261;19;9257;-70
2023/10/13 04:22:14;;;;;;;;;;;16.60;99.90;;;;;;7318672;19;9241;-70
2023/10/13 04:27:53;;;;;;;;;;;16.70;99.90;;;;;;7317311;19;9297;-70
2023/10/13 04:30:27;;;;;;;;;;;16.70;99.90;;;;;;7313376;19;9560;-70
2023/10/13 04:35:47;;;;;;;;;;;16.80;99.90;;;;;;7313507;19;9673;-70
2023/10/13 04:38:19;;;;;;;;;;;16.80;99.90;;;;;;7320775;19;9340;-70
2023/10/13 04:46:35;;;;;;;;;;;16.80;99.90;;;;;;7318976;19;9575;-70
2023/10/13 04:49:09;;;;;;;;;;;16.90;99.90;;;;;;7319398;19;9333;-70
2023/10/13 04:51:58;;;;;;;;;;;16.90;99.90;;;;;;7318881;19;9547;-70
2023/10/13 04:54:45;;;;;;;;;;;16.90;99.90;;;;;;7318176;19;9300;-70
2023/10/13 04:57:25;;;;;;;;;;;16.90;99.90;;;;;;7318906;19;9522;-70
2023/10/13 05:03:40;;;;;;;;;;;16.90;99.90;;;;;;7313237;19;9473;-70
2023/10/13 05:05:46;;;;;;;;;;;16.90;99.90;;;;;;7320486;19;10922;-70
2023/10/13 05:49:40;;;;;;;;;;;16.90;99.90;;;;;;7319930;19;9315;-71
2023/10/13 05:52:19;;;;;;;;;;;16.90;99.90;;;;;;7314217;19;9199;-71
2023/10/13 06:29:57;;;;;;;;;;;16.90;99.90;;;;;;7315653;19;9284;-71
2023/10/13 06:32:27;;;;;;;;;;;16.90;99.90;;;;;;7311055;19;9465;-71
2023/10/13 06:34:57;;;;;;;;;;;16.90;99.90;;;;;;7315790;19;9257;-71
2023/10/13 06:37:30;;;;;;;;;;;17.00;99.90;;;;;;7314451;19;9833;-71
2023/10/13 06:40:06;;;;;;;;;;;17.00;99.90;;;;;;7317748;19;9252;-71
2023/10/13 06:42:39;;;;;;;;;;;17.00;99.90;;;;;;7317680;19;9149;-71
2023/10/13 06:45:12;;;;;;;;;;;17.00;99.90;;;;;;7318851;19;9486;-70
2023/10/13 06:47:42;;;;;;;;;;;17.00;99.90;;;;;;7314228;19;9327;-70
2023/10/13 06:50:15;;;;;;;;;;;17.00;99.90;;;;;;7312432;19;10397;-70
2023/10/13 06:52:44;;;;;;;;;;;17.00;99.90;;;;;;7316453;19;9222;-71
2023/10/13 06:55:18;;;;;;;;;;;17.00;99.90;;;;;;7311411;19;10504;-70
2023/10/13 06:57:49;;;;;;;;;;;17.10;99.90;;;;;;7307601;19;9416;-68
2023/10/13 07:00:28;;;;;;;;;;;17.10;99.90;;;;;;7308212;19;9305;-68
2023/10/13 07:03:05;;;;;;;;;;;17.10;99.90;;;;;;7316106;19;9633;-70
2023/10/13 07:05:37;;;;;;;;;;;17.20;99.90;;;;;;7312620;19;9658;-73
2023/10/13 07:08:08;;;;;;;;;;;17.20;99.90;;;;;;7317144;19;9490;-64
2023/10/13 07:10:51;;;;;;;;;;;17.20;99.90;;;;;;7314940;19;9138;-64
2023/10/13 07:13:22;;;;;;;;;;;17.20;99.90;;;;;;7320430;19;9333;-65
2023/10/13 07:15:51;;;;;;;;;;;17.20;99.90;;;;;;7310223;19;10398;-63
2023/10/13 07:18:23;;;;;;;;;;;17.20;99.90;;;;;;7316095;19;9257;-65
2023/10/13 07:20:57;;;;;;;;;;;17.20;99.90;;;;;;7322892;19;9449;-65
2023/10/13 07:23:29;;;;;;;;;;;17.20;99.90;;;;;;7322240;19;9324;-65
2023/10/13 07:26:02;;;;;;;;;;;17.30;99.90;;;;;;7321346;19;9285;-64
2023/10/13 07:28:31;;;;;;;;;;;17.40;99.90;;;;;;7322536;19;8945;-65
2023/10/13 07:33:43;;;;;;;;;;;17.60;99.90;;;;;;7322284;19;9303;-64
2023/10/13 07:36:27;;;;;;;;;;;17.60;99.90;;;;;;7321758;19;9523;-65
2023/10/13 07:39:20;;;;;;;;;;;17.60;99.90;;;;;;7321508;19;9188;-65
2023/10/13 07:41:54;;;;;;;;;;;17.60;99.90;;;;;;7320261;19;9181;-65
2023/10/13 07:44:24;;;;;;;;;;;17.60;99.90;;;;;;7319829;19;10305;-64
2023/10/13 07:47:03;;;;;;;;;;;17.60;99.90;;;;;;7319655;19;10330;-64
2023/10/13 07:49:36;;;;;;;;;;;17.60;99.90;;;;;;7321877;19;9253;-64
2023/10/13 07:52:23;;;;;;;;;;;17.60;99.90;;;;;;7320477;19;9362;-64
2023/10/13 07:55:00;;;;;;;;;;;17.60;99.90;;;;;;7317783;19;9281;-64
2023/10/13 07:57:32;;;;;;;;;;;17.60;99.90;;;;;;7321760;19;10676;-66
2023/10/13 08:00:11;;;;;;;;;;;17.70;99.90;;;;;;7322515;19;9269;-64
2023/10/13 08:02:52;;;;;;;;;;;17.70;99.90;;;;;;7322245;19;9130;-65
2023/10/13 08:05:39;;;;;;;;;;;17.70;99.90;;;;;;7320137;19;10434;-65
2023/10/13 08:08:14;;;;;;;;;;;17.70;99.90;;;;;;7322790;19;9168;-64
2023/10/13 08:10:45;;;;;;;;;;;17.60;99.90;;;;;;7321490;19;9201;-64
2023/10/13 08:13:18;;;;;;;;;;;17.50;99.90;;;;;;7320246;19;9528;-65
2023/10/13 08:15:47;;;;;;;;;;;17.50;99.90;;;;;;7318095;19;9512;-64
2023/10/13 08:18:29;;;;;;;;;;;17.50;99.90;;;;;;7320899;19;9447;-64
2023/10/13 08:21:03;;;;;;;;;;;17.60;99.90;;;;;;7320442;19;9233;-65
2023/10/13 08:23:57;;;;;;;;;;;17.50;99.90;;;;;;7322437;19;9321;-65
2023/10/13 08:34:59;;;;;;;;;;;17.40;99.90;;;;;;7319997;19;9476;-64
2023/10/13 08:37:33;;;;;;;;;;;17.40;99.90;;;;;;7320548;19;9533;-65
2023/10/13 08:43:09;;;;;;;;;;;17.40;99.90;;;;;;7320538;19;10450;-65
2023/10/13 08:45:58;;;;;;;;;;;17.40;99.90;;;;;;7316545;19;9245;-64
2023/10/13 08:48:34;;;;;;;;;;;17.50;99.90;;;;;;7321513;19;9539;-65
2023/10/13 08:51:14;;;;;;;;;;;17.60;99.90;;;;;;7319482;19;9244;-65
2023/10/13 08:53:51;;;;;;;;;;;17.50;99.90;;;;;;7321033;19;9506;-64
2023/10/13 08:56:34;;;;;;;;;;;17.60;99.90;;;;;;7319997;19;9413;-64
2023/10/13 08:59:06;;;;;;;;;;;17.60;99.90;;;;;;7318015;19;9233;-64
2023/10/13 09:01:48;;;;;;;;;;;17.70;99.90;;;;;;7319777;19;9622;-64
2023/10/13 09:04:21;;;;;;;;;;;17.70;99.90;;;;;;7320040;19;9213;-65
2023/10/13 09:09:42;;;;;;;;;;;17.70;99.90;;;;;;7320794;19;9547;-65
2023/10/13 09:12:12;;;;;;;;;;;17.80;99.90;;;;;;7320658;19;9229;-65
2023/10/13 09:14:46;;;;;;;;;;;17.80;99.90;;;;;;7320118;19;9260;-65
2023/10/13 09:17:34;;;;;;;;;;;17.90;99.90;;;;;;7319032;19;9245;-65
2023/10/13 09:20:23;;;;;;;;;;;17.90;99.90;;;;;;7319562;19;9360;-65
2023/10/13 09:23:07;;;;;;;;;;;18.00;99.90;;;;;;7321336;19;9282;-65
2023/10/13 09:25:53;;;;;;;;;;;18.00;99.90;;;;;;7319687;19;9255;-65
2023/10/13 09:28:22;;;;;;;;;;;18.20;99.90;;;;;;7318754;19;9126;-65
2023/10/13 09:30:56;;;;;;;;;;;18.20;99.90;;;;;;7319725;19;9261;-65
2023/10/13 09:33:32;;;;;;;;;;;18.30;99.90;;;;;;7317475;19;9493;-65
2023/10/13 09:36:04;;;;;;;;;;;18.30;99.90;;;;;;7319949;19;8945;-65
2023/10/13 09:38:33;;;;;;;;;;;18.40;99.90;;;;;;7316624;19;10526;-65
2023/10/13 09:41:17;;;;;;;;;;;18.40;99.90;;;;;;7319473;19;9678;-66
2023/10/13 09:43:44;;;;;;;;;;;18.50;99.90;;;;;;7319349;19;9651;-65
2023/10/13 09:46:18;;;;;;;;;;;18.50;99.90;;;;;;7315001;19;10351;-65
2023/10/13 09:48:52;;;;;;;;;;;18.50;99.90;;;;;;7319366;19;9194;-65
2023/10/13 09:51:22;;;;;;;;;;;18.60;99.90;;;;;;7319619;19;9224;-65
2023/10/13 09:54:06;;;;;;;;;;;18.60;99.90;;;;;;7321081;19;9394;-65
2023/10/13 09:56:51;;;;;;;;;;;18.70;99.90;;;;;;7319682;19;9243;-66
2023/10/13 09:59:24;;;;;;;;;;;18.80;99.90;;;;;;7318821;19;9322;-65
2023/10/13 10:01:58;;;;;;;;;;;18.90;99.90;;;;;;7318688;19;9553;-65
2023/10/13 10:04:29;;;;;;;;;;;18.90;99.90;;;;;;7317648;19;9459;-65
2023/10/13 10:06:59;;;;;;;;;;;18.90;99.90;;;;;;7319282;19;9247;-65
2023/10/13 10:09:34;;;;;;;;;;;19.00;99.90;;;;;;7318944;19;9470;-65
2023/10/13 10:12:34;;;;;;;;;;;19.00;99.90;;;;;;7316428;19;9644;-66
2023/10/13 10:15:33;;;;;;;;;;;19.00;99.90;;;;;;7314542;19;9531;-65
2023/10/13 10:18:03;;;;;;;;;;;19.10;99.90;;;;;;7318652;19;9242;-64
2023/10/13 10:20:42;;;;;;;;;;;19.10;99.90;;;;;;7318795;19;10647;-65
2023/10/13 10:23:17;;;;;;;;;;;19.20;99.90;;;;;;7319296;19;9373;-65
2023/10/13 10:25:47;;;;;;;;;;;19.20;99.90;;;;;;7318210;19;9027;-65
2023/10/13 10:28:17;;;;;;;;;;;19.30;99.90;;;;;;7318772;19;9227;-65
2023/10/13 10:30:46;;;;;;;;;;;19.30;99.90;;;;;;7317770;19;10762;-66
2023/10/13 10:33:15;;;;;;;;;;;19.30;99.90;;;;;;7316612;19;9617;-65
2023/10/13 10:35:49;;;;;;;;;;;19.40;99.90;;;;;;7317801;19;9197;-65
2023/10/13 10:38:32;;;;;;;;;;;19.40;99.90;;;;;;7316386;19;9301;-65
2023/10/13 10:41:04;;;;;;;;;;;19.50;99.90;;;;;;7316407;19;9213;-64
2023/10/13 10:43:45;;;;;;;;;;;19.60;99.90;;;;;;7317333;19;9249;-65
2023/10/13 10:46:16;;;;;;;;;;;19.60;99.90;;;;;;7316716;19;10609;-65
2023/10/13 10:48:45;;;;;;;;;;;19.70;99.90;;;;;;7317851;19;9278;-65
2023/10/13 10:51:21;;;;;;;;;;;19.80;99.90;;;;;;7318713;19;9168;-65
2023/10/13 10:53:51;;;;;;;;;;;19.80;99.90;;;;;;7318336;19;9294;-65
2023/10/13 10:56:36;;;;;;;;;;;19.80;99.90;;;;;;7315625;19;9661;-65
2023/10/13 10:59:09;;;;;;;;;;;19.80;99.90;;;;;;7314905;19;10387;-65
2023/10/13 11:01:50;;;;;;;;;;;19.80;99.90;;;;;;7316641;19;9226;-65
2023/10/13 11:04:24;;;;;;;;;;;19.80;99.90;;;;;;7318226;19;9128;-65
2023/10/13 11:06:58;;;;;;;;;;;19.80;99.90;;;;;;7317027;19;9675;-65
2023/10/13 11:09:36;;;;;;;;;;;19.80;99.90;;;;;;7318276;19;11298;-65
2023/10/13 11:12:23;;;;;;;;;;;19.80;99.90;;;;;;7311967;19;9314;-65
2023/10/13 11:15:05;;;;;;;;;;;19.90;99.90;;;;;;7318030;19;9342;-65
2023/10/13 11:17:41;;;;;;;;;;;19.90;99.90;;;;;;7313648;19;9476;-66
2023/10/13 11:20:20;;;;;;;;;;;20.00;99.90;;;;;;7317168;19;9429;-66
2023/10/13 11:22:52;;;;;;;;;;;20.10;99.90;;;;;;7314877;19;9537;-66
2023/10/13 11:25:29;;;;;;;;;;;20.20;99.90;;;;;;7314235;19;9576;-66
2023/10/13 11:28:06;;;;;;;;;;;20.20;99.90;;;;;;7316043;19;9412;-67
2023/10/13 11:30:45;;;;;;;;;;;20.30;99.90;;;;;;7314022;19;9467;-66
2023/10/13 11:33:18;;;;;;;;;;;20.30;99.90;;;;;;7314438;19;9259;-65
2023/10/13 11:36:03;;;;;;;;;;;20.20;99.90;;;;;;7316857;19;9327;-66
2023/10/13 11:38:43;;;;;;;;;;;20.20;99.90;;;;;;7314077;19;10032;-66
2023/10/13 11:41:18;;;;;;;;;;;20.20;99.90;;;;;;7312795;19;9280;-66
2023/10/13 11:44:06;;;;;;;;;;;20.20;99.90;;;;;;7316450;19;10339;-67
2023/10/13 11:49:31;;;;;;;;;;;20.10;99.90;;;;;;7313423;19;9226;-82
2023/10/13 11:52:10;;;;;;;;;;;20.20;99.90;;;;;;7312952;19;9991;-80
2023/10/13 11:54:41;;;;;;;;;;;20.20;99.90;;;;;;7312871;19;9576;-79
2023/10/13 11:57:11;;;;;;;;;;;20.20;99.90;;;;;;7315867;19;11127;-79
2023/10/13 11:59:45;;;;;;;;;;;20.10;99.90;;;;;;7307440;19;9314;-79
2023/10/13 12:04:57;;;;;;;;;;;20.30;99.90;;;;;;7319303;19;9286;-78
2023/10/13 12:07:27;;;;;;;;;;;20.30;99.90;;;;;;7315065;19;9270;-79
2023/10/13 12:10:15;;;;;;;;;;;20.20;99.90;;;;;;7316666;19;10314;-78
2023/10/13 12:12:46;;;;;;;;;;;20.20;99.90;;;;;;7316097;19;9467;-77
2023/10/13 12:15:36;;;;;;;;;;;20.20;99.90;;;;;;7310287;19;9450;-76
2023/10/13 12:18:06;;;;;;;;;;;20.20;99.90;;;;;;7320022;19;9664;-79
2023/10/13 12:20:32;;;;;;;;;;;20.20;99.90;;;;;;7315095;19;9276;-79
2023/10/13 12:23:09;;;;;;;;;;;20.20;99.90;;;;;;7314327;19;9302;-75
2023/10/13 12:25:57;;;;;;;;;;;20.20;99.90;;;;;;7319207;19;9473;-79
2023/10/13 12:28:28;;;;;;;;;;;20.30;99.90;;;;;;7319978;19;9083;-82
2023/10/13 12:31:03;;;;;;;;;;;20.20;99.90;;;;;;7319014;19;9573;-83
2023/10/13 12:33:40;;;;;;;;;;;20.20;99.90;;;;;;7319232;19;9398;-83
2023/10/13 12:36:09;;;;;;;;;;;20.20;99.90;;;;;;7317244;19;9261;-86
2023/10/13 12:52:15;;;;;;;;;;;20.10;99.90;;;;;;7308852;19;9403;-81
2023/10/13 12:54:47;;;;;;;;;;;20.10;99.90;;;;;;7315451;19;9536;-86
2023/10/13 12:57:20;;;;;;;;;;;20.10;99.90;;;;;;7314910;19;9252;-83
2023/10/13 12:59:49;;;;;;;;;;;20.10;99.90;;;;;;7319578;19;10196;-83
2023/10/13 13:02:20;;;;;;;;;;;20.10;99.90;;;;;;7326004;19;9322;-85
2023/10/13 13:04:54;;;;;;;;;;;20.10;99.90;;;;;;7326030;19;9282;-85
2023/10/13 13:07:28;;;;;;;;;;;20.00;99.90;;;;;;7322437;19;9447;-79
2023/10/13 13:09:59;;;;;;;;;;;20.00;99.90;;;;;;7324323;19;9297;-78
2023/10/13 13:12:31;;;;;;;;;;;20.00;99.90;;;;;;7320537;19;9322;-79
2023/10/13 13:15:00;;;;;;;;;;;20.00;99.90;;;;;;7324683;19;9214;-80
2023/10/13 13:17:29;;;;;;;;;;;20.10;99.90;;;;;;7327176;19;9465;-80
2023/10/13 13:19:58;;;;;;;;;;;20.10;99.90;;;;;;7326582;19;10365;-80
2023/10/13 13:22:27;;;;;;;;;;;20.10;99.90;;;;;;7326632;19;9217;-79
2023/10/13 13:24:56;;;;;;;;;;;20.10;99.90;;;;;;7326236;19;10372;-80
2023/10/13 13:27:25;;;;;;;;;;;20.00;99.90;;;;;;7325907;19;9147;-80
2023/10/13 13:29:57;;;;;;;;;;;20.00;99.90;;;;;;7326099;19;9233;-80
2023/10/13 13:32:28;;;;;;;;;;;20.00;99.90;;;;;;7326346;19;9244;-80
2023/10/13 13:35:03;;;;;;;;;;;20.00;99.90;;;;;;7325631;19;9312;-80
2023/10/13 13:37:33;;;;;;;;;;;20.00;99.90;;;;;;7326095;19;9189;-80
2023/10/13 13:40:13;;;;;;;;;;;20.00;99.90;;;;;;7325629;19;9471;-80
2023/10/13 13:42:43;;;;;;;;;;;20.10;99.90;;;;;;7325124;19;9439;-80
2023/10/13 13:45:21;;;;;;;;;;;20.00;99.90;;;;;;7325747;19;9482;-80
2023/10/13 13:47:53;;;;;;;;;;;20.00;99.90;;;;;;7325766;19;9210;-81
2023/10/13 13:50:26;;;;;;;;;;;20.00;99.90;;;;;;7325829;19;9265;-80
2023/10/13 13:52:57;;;;;;;;;;;19.90;99.90;;;;;;7325296;19;9271;-81
2023/10/13 13:55:28;;;;;;;;;;;20.00;99.90;;;;;;7325098;19;9295;-80
2023/10/13 13:57:59;;;;;;;;;;;20.00;99.90;;;;;;7325482;19;9240;-80
2023/10/13 14:00:48;;;;;;;;;;;20.00;99.90;;;;;;7325227;19;9255;-81
2023/10/13 14:03:30;;;;;;;;;;;20.10;99.90;;;;;;7325271;19;9355;-80
2023/10/13 14:06:01;;;;;;;;;;;20.00;99.90;;;;;;7325466;19;9296;-81
2023/10/13 14:08:30;;;;;;;;;;;20.00;99.90;;;;;;7325915;19;9456;-81
2023/10/13 14:13:55;;;;;;;;;;;19.90;99.90;;;;;;7325057;19;10015;-81
2023/10/13 14:16:27;;;;;;;;;;;19.90;99.90;;;;;;7325421;19;9174;-80
2023/10/13 14:18:55;;;;;;;;;;;19.80;99.90;;;;;;7323783;19;10755;-80
2023/10/13 14:21:27;;;;;;;;;;;19.90;99.90;;;;;;7325288;19;9529;-81
2023/10/13 14:24:00;;;;;;;;;;;19.80;99.90;;;;;;7325758;19;9566;-81
2023/10/13 14:26:29;;;;;;;;;;;19.80;99.90;;;;;;7325169;19;9201;-80
2023/10/13 14:29:05;;;;;;;;;;;19.80;99.90;;;;;;7323810;19;9427;-81
2023/10/13 14:31:39;;;;;;;;;;;19.80;99.90;;;;;;7324644;19;9117;-81
2023/10/13 14:34:09;;;;;;;;;;;19.80;99.90;;;;;;7324892;19;9296;-80
2023/10/13 14:36:38;;;;;;;;;;;19.80;99.90;;;;;;7324505;19;9122;-81
2023/10/13 14:39:10;;;;;;;;;;;19.80;99.90;;;;;;7324165;19;9229;-80
2023/10/13 14:41:39;;;;;;;;;;;19.70;99.90;;;;;;7324090;19;9210;-81
2023/10/13 14:44:12;;;;;;;;;;;19.70;99.90;;;;;;7324334;19;9299;-80
2023/10/13 14:46:44;;;;;;;;;;;19.70;99.90;;;;;;7325363;19;9390;-81
2023/10/13 14:49:18;;;;;;;;;;;19.70;99.90;;;;;;7324585;19;9614;-80
2023/10/13 14:51:49;;;;;;;;;;;19.70;99.90;;;;;;7324765;19;9187;-80
2023/10/13 14:54:25;;;;;;;;;;;19.70;99.90;;;;;;7323551;19;9503;-80
2023/10/13 14:56:55;;;;;;;;;;;19.70;99.90;;;;;;7324655;19;9235;-80
2023/10/13 14:59:24;;;;;;;;;;;19.70;99.90;;;;;;7323906;19;9745;-80
2023/10/13 15:01:56;;;;;;;;;;;19.70;99.90;;;;;;7323960;19;9469;-80
2023/10/13 15:04:28;;;;;;;;;;;19.70;99.90;;;;;;7323803;19;9389;-80
2023/10/13 15:06:57;;;;;;;;;;;19.70;99.90;;;;;;7323680;19;9468;-80
2023/10/13 15:09:26;;;;;;;;;;;19.80;99.90;;;;;;7323687;19;10317;-80
2023/10/13 15:11:55;;;;;;;;;;;19.70;99.90;;;;;;7323096;19;9319;-80
2023/10/13 15:14:25;;;;;;;;;;;19.70;99.90;;;;;;7323513;19;9510;-80
2023/10/13 15:17:00;;;;;;;;;;;19.70;99.90;;;;;;7323133;19;9258;-80
2023/10/13 15:19:29;;;;;;;;;;;19.60;99.90;;;;;;7323537;19;9241;-80
2023/10/13 15:21:59;;;;;;;;;;;19.70;99.90;;;;;;7322671;19;9459;-80
2023/10/13 15:24:28;;;;;;;;;;;19.70;99.90;;;;;;7323126;19;9209;-80
2023/10/13 15:27:02;;;;;;;;;;;19.70;99.90;;;;;;7323323;19;8944;-80
2023/10/13 15:29:35;;;;;;;;;;;19.70;99.90;;;;;;7323850;19;9305;-80
2023/10/13 15:32:41;;;;;;;;;;;19.70;99.90;;;;;;7326777;19;9426;-81
2023/10/13 15:35:12;;;;;;;;;;;19.50;99.90;;;;;;7329416;19;9363;-80
2023/10/13 15:37:41;;;;;;;;;;;19.40;99.90;;;;;;7329868;19;9142;-80
2023/10/13 15:40:15;;;;;;;;;;;19.40;99.90;;;;;;7329686;19;9237;-80
2023/10/13 15:42:44;;;;;;;;;;;19.30;99.90;;;;;;7329457;19;9249;-80
2023/10/13 15:45:22;;;;;;;;;;;19.20;99.90;;;;;;7330050;19;9404;-80
2023/10/13 15:47:53;;;;;;;;;;;19.30;99.90;;;;;;7329526;19;9331;-81
2023/10/13 15:50:23;;;;;;;;;;;19.30;99.90;;;;;;7329438;19;9238;-82
2023/10/13 15:52:52;;;;;;;;;;;19.20;99.90;;;;;;7328957;19;9148;-81
2023/10/13 15:55:20;;;;;;;;;;;19.20;99.90;;;;;;7329370;19;10194;-80
2023/10/13 15:57:53;;;;;;;;;;;19.20;99.90;;;;;;7329493;19;10636;-81
2023/10/13 16:00:29;;;;;;;;;;;19.20;99.90;;;;;;7329190;19;9213;-80
2023/10/13 16:03:01;;;;;;;;;;;19.20;99.90;;;;;;7329483;19;9175;-81
2023/10/13 16:05:37;;;;;;;;;;;19.20;99.90;;;;;;7328739;19;9333;-80
2023/10/13 16:08:10;;;;;;;;;;;19.20;99.90;;;;;;7328826;19;9399;-80
2023/10/13 16:10:40;;;;;;;;;;;19.30;99.90;;;;;;7328705;19;9138;-80
2023/10/13 16:13:15;;;;;;;;;;;19.20;99.90;;;;;;7328533;19;9319;-80
2023/10/13 16:15:47;;;;;;;;;;;19.10;99.90;;;;;;7328672;19;11155;-80
2023/10/13 16:18:21;;;;;;;;;;;19.20;99.90;;;;;;7328446;19;9264;-80
2023/10/13 16:20:50;;;;;;;;;;;19.10;99.90;;;;;;7327793;19;10326;-80
2023/10/13 16:23:19;;;;;;;;;;;19.10;99.90;;;;;;7328063;19;11210;-80
2023/10/13 16:25:49;;;;;;;;;;;19.10;99.90;;;;;;7328692;19;9166;-80
2023/10/13 16:28:18;;;;;;;;;;;19.20;99.90;;;;;;7327798;19;9407;-80
2023/10/13 16:30:47;;;;;;;;;;;19.10;99.90;;;;;;7328515;19;9145;-80
2023/10/13 16:33:19;;;;;;;;;;;19.10;99.90;;;;;;7327830;19;10660;-79
2023/10/13 16:35:49;;;;;;;;;;;19.10;99.90;;;;;;7327972;19;9257;-80
2023/10/13 16:38:18;;;;;;;;;;;19.10;99.90;;;;;;7327441;19;9210;-80
2023/10/13 16:40:47;;;;;;;;;;;19.10;99.90;;;;;;7328109;19;9400;-80
2023/10/13 16:43:16;;;;;;;;;;;19.10;99.90;;;;;;7326591;19;9334;-80
2023/10/13 16:45:47;;;;;;;;;;;19.10;99.90;;;;;;7327795;19;9171;-80
2023/10/13 16:48:19;;;;;;;;;;;19.10;99.90;;;;;;7327678;19;9188;-80
2023/10/13 16:50:48;;;;;;;;;;;19.10;99.90;;;;;;7327337;19;9210;-80
2023/10/13 16:53:17;;;;;;;;;;;19.10;99.90;;;;;;7328414;19;9433;-79
2023/10/13 16:55:46;;;;;;;;;;;19.10;99.90;;;;;;7327246;19;9123;-80
2023/10/13 16:58:15;;;;;;;;;;;19.20;99.90;;;;;;7327583;19;9129;-79
2023/10/13 17:00:51;;;;;;;;;;;19.10;99.90;;;;;;7326611;19;9449;-79
2023/10/13 17:03:29;;;;;;;;;;;19.00;99.90;;;;;;7327581;19;9162;-80
2023/10/13 17:06:01;;;;;;;;;;;19.00;99.90;;;;;;7326670;19;9499;-79
2023/10/13 17:08:31;;;;;;;;;;;19.00;99.90;;;;;;7327312;19;9192;-80
2023/10/13 17:11:10;;;;;;;;;;;19.00;99.90;;;;;;7327380;19;9260;-80
2023/10/13 17:13:41;;;;;;;;;;;19.00;99.90;;;;;;7326542;19;9269;-80
2023/10/13 17:16:17;;;;;;;;;;;19.10;99.90;;;;;;7327319;19;9391;-80
2023/10/13 17:18:50;;;;;;;;;;;19.10;99.90;;;;;;7326125;19;9280;-79
2023/10/13 17:21:21;;;;;;;;;;;19.00;99.90;;;;;;7326898;19;9279;-79
2023/10/13 17:23:52;;;;;;;;;;;19.00;99.90;;;;;;7326533;19;9286;-80
2023/10/13 17:26:22;;;;;;;;;;;19.00;99.90;;;;;;7326479;19;9317;-79